Time,TemperatureF,DewpointF,PressureIn,WindDirection,WindDirectionDegrees,WindSpeedMPH,WindSpeedGustMPH,Humidity,HourlyPrecipIn,Conditions,Clouds,dailyrainin,SolarRadiationWatts/m^2,SoftwareType,DateUTC
2013-01-23 17:04:00,58.5,41.9,30.12,WNW,292,3.5,3.5,54,0.00,CLR,OVC,0.00,0.0,WeatherDisplay:10.37,2013-01-23 23:04:00,
2013-01-23 17:09:00,57.4,40.9,30.12,WNW,292,4.6,4.6,54,0.00,CLR,OVC,0.00,0.0,WeatherDisplay:10.37,2013-01-23 23:09:00,
2013-01-23 17:14:00,55.8,39.8,30.12,WNW,292,4.6,4.6,55,0.00,CLR,OVC,0.00,0.0,WeatherDisplay:10.37,2013-01-23 23:14:00,
2013-01-23 17:19:00,55.4,39.5,30.12,WNW,292,2.6,2.6,55,0.00,CLR,OVC,0.00,0.0,WeatherDisplay:10.37,2013-01-23 23:19:00,
2013-01-23 17:24:00,53.6,37.8,30.12,WNW,292,0.0,0.0,55,0.00,CLR,OVC,0.00,0.0,WeatherDisplay:10.37,2013-01-23 23:24:00,
2013-01-23 17:29:00,52.3,37.1,30.12,WNW,292,0.0,0.0,56,0.00,CLR,OVC,0.00,0.0,WeatherDisplay:10.37,2013-01-23 23:29:00,
2013-01-23 17:34:00,50.9,36.2,30.12,WNW,292,0.0,0.0,57,0.00,CLR,OVC,0.00,0.0,WeatherDisplay:10.37,2013-01-23 23:34:00,
2013-01-23 17:39:00,49.3,34.7,30.12,WNW,292,0.0,0.0,57,0.00,CLR,OVC,0.00,0.0,WeatherDisplay:10.37,2013-01-23 23:39:00,
2013-01-23 17:44:00,48.4,34.3,30.12,WNW,292,0.0,0.0,58,0.00,CLR,OVC,0.00,0.0,WeatherDisplay:10.37,2013-01-23 23:44:00,
2013-01-23 17:49:00,47.5,34.3,30.12,WNW,292,0.0,0.0,60,0.00,CLR,OVC,0.00,0.0,WeatherDisplay:10.37,2013-01-23 23:49:00,
2013-01-23 17:54:00,46.9,34.2,30.12,North,0,0.0,0.0,61,0.00,CLR,OVC,0.00,0.0,WeatherDisplay:10.37,2013-01-23 23:54:00,
2013-01-23 17:59:00,46.6,33.8,30.12,North,0,1.1,0.0,61,0.00,CLR,OVC,0.00,0.0,WeatherDisplay:10.37,2013-01-23 23:59:00,
2013-01-23 18:04:00,46.0,33.7,30.12,North,0,0.0,0.0,62,0.00,CLR,OVC,0.00,0.0,WeatherDisplay:10.37,2013-01-24 00:04:00,
2013-01-23 18:09:00,45.3,33.9,30.12,North,0,0.0,0.0,64,0.00,CLR,OVC,0.00,0.0,WeatherDisplay:10.37,2013-01-24 00:09:00,
2013-01-23 18:14:00,44.8,33.7,30.12,North,0,0.0,0.0,65,0.00,CLR,OVC,0.00,0.0,WeatherDisplay:10.37,2013-01-24 00:14:00,
2013-01-23 18:19:00,43.7,33.1,30.12,North,0,0.0,0.0,66,0.00,CLR,OVC,0.00,0.0,WeatherDisplay:10.37,2013-01-24 00:19:00,
2013-01-23 18:24:00,43.7,33.1,30.12,NNW,338,0.0,0.0,66,0.00,CLR,OVC,0.00,0.0,WeatherDisplay:10.37,2013-01-24 00:24:00,
2013-01-23 18:29:00,43.7,33.5,30.12,West,270,0.0,0.0,67,0.00,CLR,OVC,0.00,0.0,WeatherDisplay:10.37,2013-01-24 00:29:00,
2013-01-23 18:34:00,43.0,33.1,30.12,West,270,0.0,0.0,68,0.00,CLR,OVC,0.00,0.0,WeatherDisplay:10.37,2013-01-24 00:34:00,
2013-01-23 18:39:00,42.4,32.6,30.12,West,270,0.0,0.0,68,0.00,CLR,OVC,0.00,0.0,WeatherDisplay:10.37,2013-01-24 00:39:00,
2013-01-23 18:44:00,41.9,32.5,30.12,West,270,0.0,0.0,69,0.00,CLR,OVC,0.00,0.0,WeatherDisplay:10.37,2013-01-24 00:44:00,
2013-01-23 18:49:00,41.7,32.7,30.12,West,270,0.0,0.0,70,0.00,CLR,OVC,0.00,0.0,WeatherDisplay:10.37,2013-01-24 00:49:00,
2013-01-23 18:54:00,41.2,32.1,30.12,West,270,0.0,0.0,70,0.00,CLR,OVC,0.00,0.0,WeatherDisplay:10.37,2013-01-24 00:54:00,
2013-01-23 18:59:00,41.2,32.5,30.12,West,270,0.0,0.0,71,0.00,CLR,OVC,0.00,0.0,WeatherDisplay:10.37,2013-01-24 00:59:00,
2013-01-23 19:04:00,40.6,32.3,30.12,West,270,0.0,0.0,72,0.00,CLR,OVC,0.00,0.0,WeatherDisplay:10.37,2013-01-24 01:04:00,
2013-01-23 19:09:00,39.9,32.0,30.12,West,270,0.0,0.0,73,0.00,CLR,OVC,0.00,0.0,WeatherDisplay:10.37,2013-01-24 01:09:00,
2013-01-23 19:14:00,39.7,32.1,30.12,West,270,0.0,0.0,74,0.00,CLR,OVC,0.00,0.0,WeatherDisplay:10.37,2013-01-24 01:14:00,
2013-01-23 19:19:00,39.2,31.6,30.12,NNE,22,0.0,0.0,74,0.00,CLR,OVC,0.00,0.0,WeatherDisplay:10.37,2013-01-24 01:19:00,
2013-01-23 19:24:00,39.2,31.6,30.12,North,0,0.0,0.0,74,0.00,CLR,OVC,0.00,0.0,WeatherDisplay:10.37,2013-01-24 01:24:00,
2013-01-23 19:29:00,39.4,32.1,30.15,NNW,338,1.1,1.1,75,0.00,CLR,OVC,0.00,0.0,WeatherDisplay:10.37,2013-01-24 01:29:00,
2013-01-23 19:34:00,39.4,32.4,30.15,NNW,338,1.1,0.0,76,0.00,CLR,OVC,0.00,0.0,WeatherDisplay:10.37,2013-01-24 01:34:00,
2013-01-23 19:39:00,39.4,32.4,30.15,North,0,2.4,2.4,76,0.00,CLR,OVC,0.00,0.0,WeatherDisplay:10.37,2013-01-24 01:39:00,
2013-01-23 19:44:00,41.0,36.5,30.18,North,0,3.5,3.5,84,0.00,CLR,OVC,0.00,0.0,WeatherDisplay:10.37,2013-01-24 01:44:00,
2013-01-23 19:49:00,41.2,36.4,30.18,North,0,0.0,0.0,83,0.00,CLR,OVC,0.00,0.0,WeatherDisplay:10.37,2013-01-24 01:49:00,
2013-01-23 19:54:00,41.2,36.1,30.18,North,0,0.0,0.0,82,0.00,CLR,OVC,0.00,0.0,WeatherDisplay:10.37,2013-01-24 01:54:00,
2013-01-23 19:59:00,41.7,36.9,30.18,NNE,22,0.0,0.0,83,0.00,CLR,OVC,0.00,0.0,WeatherDisplay:10.37,2013-01-24 01:59:00,
2013-01-23 20:04:00,42.1,37.0,30.18,NNE,22,3.5,3.5,82,0.00,CLR,OVC,0.00,0.0,WeatherDisplay:10.37,2013-01-24 02:04:00,
2013-01-23 20:09:00,42.3,36.8,30.18,North,0,3.5,3.5,81,0.00,CLR,OVC,0.00,0.0,WeatherDisplay:10.37,2013-01-24 02:09:00,
2013-01-23 20:14:00,42.3,36.2,30.18,North,0,3.5,3.5,79,0.00,CLR,OVC,0.00,0.0,WeatherDisplay:10.37,2013-01-24 02:14:00,
2013-01-23 20:19:00,42.3,36.2,30.18,NNE,22,3.1,3.1,79,0.00,CLR,OVC,0.00,0.0,WeatherDisplay:10.37,2013-01-24 02:19:00,
2013-01-23 20:24:00,41.9,35.2,30.18,North,0,2.3,0.0,77,0.00,CLR,OVC,0.00,0.0,WeatherDisplay:10.37,2013-01-24 02:24:00,
2013-01-23 20:29:00,41.2,34.2,30.21,NNE,22,0.0,0.0,76,0.00,CLR,OVC,0.00,0.0,WeatherDisplay:10.37,2013-01-24 02:29:00,
2013-01-23 20:34:00,41.4,35.0,30.21,North,0,4.0,4.0,78,0.00,CLR,OVC,0.00,0.0,WeatherDisplay:10.37,2013-01-24 02:34:00,
2013-01-23 20:39:00,41.5,35.2,30.21,North,0,3.5,3.5,78,0.00,CLR,OVC,0.00,0.0,WeatherDisplay:10.37,2013-01-24 02:39:00,
2013-01-23 20:44:00,41.5,34.9,30.18,North,0,3.6,3.6,77,0.00,CLR,OVC,0.00,0.0,WeatherDisplay:10.37,2013-01-24 02:44:00,
2013-01-23 20:49:00,41.5,34.5,30.18,NE,45,4.6,4.6,76,0.00,CLR,OVC,0.00,0.0,WeatherDisplay:10.37,2013-01-24 02:49:00,
2013-01-23 20:54:00,41.2,34.2,30.18,North,0,3.5,3.5,76,0.00,CLR,OVC,0.00,0.0,WeatherDisplay:10.37,2013-01-24 02:54:00,
2013-01-23 21:00:00,41.2,33.9,30.15,North,0,2.3,2.4,75,0.00,CLR,OVC,0.00,0.0,WeatherDisplay:10.37,2013-01-24 03:00:00,
2013-01-23 21:05:00,40.5,32.8,30.15,North,0,2.3,2.3,74,0.00,CLR,OVC,0.00,0.0,WeatherDisplay:10.37,2013-01-24 03:05:00,
2013-01-23 21:10:00,39.7,32.1,30.15,NNE,22,2.4,2.4,74,0.00,CLR,OVC,0.00,0.0,WeatherDisplay:10.37,2013-01-24 03:10:00,
2013-01-23 21:15:00,39.6,32.0,30.18,NNW,338,3.5,3.5,74,0.00,CLR,OVC,0.00,0.0,WeatherDisplay:10.37,2013-01-24 03:15:00,
2013-01-23 21:20:00,39.4,31.8,30.18,North,0,3.5,3.5,74,0.00,CLR,OVC,0.00,0.0,WeatherDisplay:10.37,2013-01-24 03:20:00,
2013-01-23 21:25:00,39.0,31.4,30.18,NNE,22,4.0,4.0,74,0.00,CLR,OVC,0.00,0.0,WeatherDisplay:10.37,2013-01-24 03:25:00,
2013-01-23 21:30:00,38.7,30.7,30.21,North,0,3.1,3.1,73,0.00,CLR,OVC,0.00,0.0,WeatherDisplay:10.37,2013-01-24 03:30:00,
2013-01-23 21:35:00,38.7,30.7,30.21,NNE,22,2.9,2.9,73,0.00,CLR,OVC,0.00,0.0,WeatherDisplay:10.37,2013-01-24 03:35:00,
2013-01-23 21:40:00,38.7,30.4,30.21,NNE,22,5.8,5.8,72,0.00,CLR,OVC,0.00,0.0,WeatherDisplay:10.37,2013-01-24 03:40:00,
2013-01-23 21:45:00,38.8,30.2,30.18,NNE,22,4.9,4.9,71,0.00,CLR,OVC,0.00,0.0,WeatherDisplay:10.37,2013-01-24 03:45:00,
2013-01-23 21:50:00,38.5,29.9,30.18,NNE,22,3.5,3.5,71,0.00,CLR,OVC,0.00,0.0,WeatherDisplay:10.37,2013-01-24 03:50:00,
2013-01-23 21:55:00,38.3,29.7,30.18,NNE,22,2.3,2.3,71,0.00,CLR,OVC,0.00,0.0,WeatherDisplay:10.37,2013-01-24 03:55:00,
2013-01-23 22:00:00,37.9,29.0,30.21,North,0,3.5,3.5,70,0.00,CLR,OVC,0.00,0.0,WeatherDisplay:10.37,2013-01-24 04:00:00,